sensor_id;sensor_type;location;lat;lon;timestamp;P1;durP1;ratioP1;P2;durP2;ratioP2
14984;SDS011;7588;62.368;25.902;2023-05-19T00:00:16;2.20;;;2.10;;
14984;SDS011;7588;62.368;25.902;2023-05-19T00:02:42;2.53;;;2.00;;
14984;SDS011;7588;62.368;25.902;2023-05-19T00:05:10;1.90;;;1.70;;
14984;SDS011;7588;62.368;25.902;2023-05-19T00:07:37;3.03;;;1.70;;
14984;SDS011;7588;62.368;25.902;2023-05-19T00:10:03;2.50;;;1.90;;
14984;SDS011;7588;62.368;25.902;2023-05-19T00:12:30;1.67;;;1.57;;
14984;SDS011;7588;62.368;25.902;2023-05-19T00:14:56;2.03;;;1.87;;
14984;SDS011;7588;62.368;25.902;2023-05-19T00:17:22;2.00;;;1.50;;
14984;SDS011;7588;62.368;25.902;2023-05-19T00:19:48;2.17;;;1.90;;
14984;SDS011;7588;62.368;25.902;2023-05-19T00:22:14;3.60;;;2.07;;
14984;SDS011;7588;62.368;25.902;2023-05-19T00:24:40;5.13;;;2.63;;
14984;SDS011;7588;62.368;25.902;2023-05-19T00:27:05;1.87;;;1.77;;
14984;SDS011;7588;62.368;25.902;2023-05-19T00:29:31;2.80;;;2.60;;
14984;SDS011;7588;62.368;25.902;2023-05-19T00:31:57;2.73;;;1.90;;
14984;SDS011;7588;62.368;25.902;2023-05-19T00:34:23;1.83;;;1.73;;
14984;SDS011;7588;62.368;25.902;2023-05-19T00:36:48;1.93;;;1.80;;
14984;SDS011;7588;62.368;25.902;2023-05-19T00:39:14;2.47;;;2.27;;
14984;SDS011;7588;62.368;25.902;2023-05-19T00:41:40;4.50;;;1.90;;
14984;SDS011;7588;62.368;25.902;2023-05-19T00:44:06;3.03;;;1.93;;
14984;SDS011;7588;62.368;25.902;2023-05-19T00:46:32;3.70;;;2.00;;
14984;SDS011;7588;62.368;25.902;2023-05-19T00:48:58;3.10;;;2.13;;
14984;SDS011;7588;62.368;25.902;2023-05-19T00:51:24;2.87;;;1.90;;
14984;SDS011;7588;62.368;25.902;2023-05-19T00:53:52;3.30;;;1.83;;
14984;SDS011;7588;62.368;25.902;2023-05-19T00:56:17;3.27;;;2.03;;
14984;SDS011;7588;62.368;25.902;2023-05-19T00:58:45;4.30;;;2.00;;
14984;SDS011;7588;62.368;25.902;2023-05-19T01:01:12;2.03;;;1.83;;
14984;SDS011;7588;62.368;25.902;2023-05-19T01:03:38;2.20;;;2.00;;
14984;SDS011;7588;62.368;25.902;2023-05-19T01:06:06;2.50;;;2.30;;
14984;SDS011;7588;62.368;25.902;2023-05-19T01:08:33;2.37;;;2.03;;
14984;SDS011;7588;62.368;25.902;2023-05-19T01:11:00;1.93;;;1.73;;
14984;SDS011;7588;62.368;25.902;2023-05-19T01:13:26;2.10;;;1.90;;
14984;SDS011;7588;62.368;25.902;2023-05-19T01:16:12;2.53;;;1.93;;
14984;SDS011;7588;62.368;25.902;2023-05-19T01:18:51;2.53;;;2.20;;
14984;SDS011;7588;62.368;25.902;2023-05-19T01:31:51;3.37;;;2.13;;
14984;SDS011;7588;62.368;25.902;2023-05-19T01:34:21;2.60;;;2.00;;
14984;SDS011;7588;62.368;25.902;2023-05-19T01:36:49;2.73;;;2.53;;
14984;SDS011;7588;62.368;25.902;2023-05-19T01:39:17;2.70;;;2.27;;
14984;SDS011;7588;62.368;25.902;2023-05-19T01:41:44;2.37;;;2.17;;
14984;SDS011;7588;62.368;25.902;2023-05-19T01:44:10;2.27;;;2.07;;
14984;SDS011;7588;62.368;25.902;2023-05-19T01:46:37;5.17;;;2.63;;
14984;SDS011;7588;62.368;25.902;2023-05-19T01:49:03;2.83;;;2.27;;
14984;SDS011;7588;62.368;25.902;2023-05-19T01:51:30;3.23;;;2.10;;
14984;SDS011;7588;62.368;25.902;2023-05-19T01:53:56;3.17;;;2.17;;
14984;SDS011;7588;62.368;25.902;2023-05-19T01:56:26;4.40;;;2.63;;
14984;SDS011;7588;62.368;25.902;2023-05-19T01:59:20;2.17;;;1.97;;
14984;SDS011;7588;62.368;25.902;2023-05-19T02:01:52;2.87;;;2.57;;
14984;SDS011;7588;62.368;25.902;2023-05-19T02:10:24;2.60;;;2.00;;
14984;SDS011;7588;62.368;25.902;2023-05-19T02:12:54;2.67;;;2.20;;
14984;SDS011;7588;62.368;25.902;2023-05-19T02:15:25;2.20;;;2.00;;
14984;SDS011;7588;62.368;25.902;2023-05-19T02:17:57;3.00;;;2.20;;
14984;SDS011;7588;62.368;25.902;2023-05-19T02:20:27;3.07;;;2.40;;
14984;SDS011;7588;62.368;25.902;2023-05-19T02:22:53;3.13;;;2.20;;
14984;SDS011;7588;62.368;25.902;2023-05-19T02:25:19;2.40;;;2.20;;
14984;SDS011;7588;62.368;25.902;2023-05-19T02:27:45;4.37;;;2.33;;
14984;SDS011;7588;62.368;25.902;2023-05-19T02:30:13;2.50;;;2.30;;
14984;SDS011;7588;62.368;25.902;2023-05-19T02:32:38;4.13;;;2.10;;
14984;SDS011;7588;62.368;25.902;2023-05-19T02:35:04;5.63;;;1.97;;
14984;SDS011;7588;62.368;25.902;2023-05-19T02:37:30;6.27;;;2.20;;
14984;SDS011;7588;62.368;25.902;2023-05-19T02:39:56;5.43;;;2.50;;
14984;SDS011;7588;62.368;25.902;2023-05-19T02:42:22;3.40;;;2.90;;
14984;SDS011;7588;62.368;25.902;2023-05-19T02:44:48;3.27;;;2.20;;
14984;SDS011;7588;62.368;25.902;2023-05-19T02:47:14;5.30;;;2.30;;
14984;SDS011;7588;62.368;25.902;2023-05-19T02:49:39;2.63;;;2.13;;
14984;SDS011;7588;62.368;25.902;2023-05-19T02:52:06;2.60;;;2.10;;
14984;SDS011;7588;62.368;25.902;2023-05-19T02:54:33;3.63;;;2.47;;
14984;SDS011;7588;62.368;25.902;2023-05-19T02:56:59;2.97;;;2.47;;
14984;SDS011;7588;62.368;25.902;2023-05-19T02:59:25;3.67;;;2.50;;
14984;SDS011;7588;62.368;25.902;2023-05-19T03:01:59;2.50;;;2.30;;
14984;SDS011;7588;62.368;25.902;2023-05-19T03:04:25;5.57;;;2.57;;
14984;SDS011;7588;62.368;25.902;2023-05-19T03:06:51;3.70;;;2.20;;
14984;SDS011;7588;62.368;25.902;2023-05-19T03:09:18;3.20;;;2.70;;
14984;SDS011;7588;62.368;25.902;2023-05-19T03:11:44;2.93;;;2.57;;
14984;SDS011;7588;62.368;25.902;2023-05-19T03:14:10;3.73;;;2.00;;
14984;SDS011;7588;62.368;25.902;2023-05-19T03:16:37;2.73;;;2.47;;
14984;SDS011;7588;62.368;25.902;2023-05-19T03:19:05;2.53;;;2.03;;
14984;SDS011;7588;62.368;25.902;2023-05-19T03:21:31;4.77;;;2.13;;
14984;SDS011;7588;62.368;25.902;2023-05-19T03:23:58;2.43;;;2.23;;
14984;SDS011;7588;62.368;25.902;2023-05-19T03:26:24;2.37;;;2.13;;
14984;SDS011;7588;62.368;25.902;2023-05-19T03:28:50;3.03;;;2.20;;
14984;SDS011;7588;62.368;25.902;2023-05-19T03:31:16;3.50;;;2.63;;
14984;SDS011;7588;62.368;25.902;2023-05-19T03:33:42;2.70;;;2.00;;
14984;SDS011;7588;62.368;25.902;2023-05-19T03:36:08;4.67;;;2.30;;
14984;SDS011;7588;62.368;25.902;2023-05-19T03:38:34;5.03;;;2.00;;
14984;SDS011;7588;62.368;25.902;2023-05-19T03:40:59;2.87;;;2.20;;
14984;SDS011;7588;62.368;25.902;2023-05-19T03:43:25;3.10;;;2.30;;
14984;SDS011;7588;62.368;25.902;2023-05-19T03:45:51;3.83;;;2.43;;
14984;SDS011;7588;62.368;25.902;2023-05-19T03:48:17;3.60;;;2.00;;
14984;SDS011;7588;62.368;25.902;2023-05-19T03:50:43;2.27;;;1.80;;
14984;SDS011;7588;62.368;25.902;2023-05-19T03:53:08;2.97;;;1.87;;
14984;SDS011;7588;62.368;25.902;2023-05-19T03:55:34;3.40;;;2.00;;
14984;SDS011;7588;62.368;25.902;2023-05-19T03:58:01;2.00;;;1.90;;
14984;SDS011;7588;62.368;25.902;2023-05-19T04:00:27;2.70;;;1.70;;
14984;SDS011;7588;62.368;25.902;2023-05-19T04:02:53;4.43;;;1.80;;
14984;SDS011;7588;62.368;25.902;2023-05-19T04:05:19;4.83;;;2.53;;
14984;SDS011;7588;62.368;25.902;2023-05-19T04:07:44;2.77;;;1.70;;
14984;SDS011;7588;62.368;25.902;2023-05-19T04:10:11;3.57;;;1.70;;
14984;SDS011;7588;62.368;25.902;2023-05-19T04:12:37;2.10;;;1.70;;
14984;SDS011;7588;62.368;25.902;2023-05-19T04:15:02;1.83;;;1.60;;
14984;SDS011;7588;62.368;25.902;2023-05-19T04:17:30;2.03;;;1.60;;
14984;SDS011;7588;62.368;25.902;2023-05-19T04:19:56;3.30;;;1.60;;
14984;SDS011;7588;62.368;25.902;2023-05-19T04:22:21;2.10;;;1.70;;
14984;SDS011;7588;62.368;25.902;2023-05-19T04:24:47;5.90;;;1.60;;
14984;SDS011;7588;62.368;25.902;2023-05-19T04:27:15;2.03;;;1.50;;
14984;SDS011;7588;62.368;25.902;2023-05-19T04:29:42;2.33;;;1.90;;
14984;SDS011;7588;62.368;25.902;2023-05-19T04:32:08;1.50;;;1.40;;
14984;SDS011;7588;62.368;25.902;2023-05-19T04:34:34;2.03;;;1.50;;
14984;SDS011;7588;62.368;25.902;2023-05-19T04:37:04;3.87;;;1.80;;
14984;SDS011;7588;62.368;25.902;2023-05-19T04:39:34;2.57;;;1.40;;
14984;SDS011;7588;62.368;25.902;2023-05-19T04:42:03;2.40;;;1.50;;
14984;SDS011;7588;62.368;25.902;2023-05-19T04:44:28;1.77;;;1.30;;
14984;SDS011;7588;62.368;25.902;2023-05-19T04:46:55;2.17;;;1.40;;
14984;SDS011;7588;62.368;25.902;2023-05-19T04:49:21;2.43;;;1.70;;
14984;SDS011;7588;62.368;25.902;2023-05-19T04:51:48;2.33;;;1.37;;
14984;SDS011;7588;62.368;25.902;2023-05-19T04:54:15;2.50;;;1.40;;
14984;SDS011;7588;62.368;25.902;2023-05-19T04:56:41;2.87;;;1.50;;
14984;SDS011;7588;62.368;25.902;2023-05-19T04:59:07;2.43;;;1.30;;
14984;SDS011;7588;62.368;25.902;2023-05-19T05:01:34;1.47;;;1.37;;
14984;SDS011;7588;62.368;25.902;2023-05-19T05:04:04;1.77;;;1.20;;
14984;SDS011;7588;62.368;25.902;2023-05-19T05:06:30;2.30;;;1.60;;
14984;SDS011;7588;62.368;25.902;2023-05-19T05:08:56;1.57;;;1.03;;
14984;SDS011;7588;62.368;25.902;2023-05-19T05:11:22;1.63;;;1.40;;
14984;SDS011;7588;62.368;25.902;2023-05-19T05:13:48;2.73;;;1.23;;
14984;SDS011;7588;62.368;25.902;2023-05-19T05:16:14;2.57;;;1.40;;
14984;SDS011;7588;62.368;25.902;2023-05-19T05:18:40;2.00;;;1.17;;
14984;SDS011;7588;62.368;25.902;2023-05-19T05:21:06;3.63;;;1.53;;
14984;SDS011;7588;62.368;25.902;2023-05-19T05:23:33;5.17;;;1.57;;
14984;SDS011;7588;62.368;25.902;2023-05-19T05:25:59;3.07;;;1.37;;
14984;SDS011;7588;62.368;25.902;2023-05-19T05:28:33;2.07;;;1.57;;
14984;SDS011;7588;62.368;25.902;2023-05-19T05:30:59;1.57;;;1.23;;
14984;SDS011;7588;62.368;25.902;2023-05-19T05:33:24;2.93;;;1.27;;
14984;SDS011;7588;62.368;25.902;2023-05-19T05:35:51;2.60;;;1.30;;
14984;SDS011;7588;62.368;25.902;2023-05-19T05:38:16;2.70;;;1.50;;
14984;SDS011;7588;62.368;25.902;2023-05-19T05:40:42;1.30;;;1.20;;
14984;SDS011;7588;62.368;25.902;2023-05-19T05:43:08;3.93;;;1.47;;
14984;SDS011;7588;62.368;25.902;2023-05-19T05:45:34;2.47;;;1.40;;
14984;SDS011;7588;62.368;25.902;2023-05-19T05:47:59;3.30;;;1.20;;
14984;SDS011;7588;62.368;25.902;2023-05-19T05:50:25;2.50;;;1.00;;
14984;SDS011;7588;62.368;25.902;2023-05-19T05:52:51;2.50;;;1.30;;
14984;SDS011;7588;62.368;25.902;2023-05-19T05:55:19;2.47;;;1.33;;
14984;SDS011;7588;62.368;25.902;2023-05-19T05:57:45;1.30;;;1.20;;
14984;SDS011;7588;62.368;25.902;2023-05-19T06:00:12;2.60;;;1.00;;
14984;SDS011;7588;62.368;25.902;2023-05-19T06:02:44;3.03;;;1.30;;
14984;SDS011;7588;62.368;25.902;2023-05-19T06:05:11;2.30;;;1.00;;
14984;SDS011;7588;62.368;25.902;2023-05-19T06:07:37;3.13;;;1.10;;
14984;SDS011;7588;62.368;25.902;2023-05-19T06:10:04;2.23;;;1.13;;
14984;SDS011;7588;62.368;25.902;2023-05-19T06:12:30;0.73;;;0.73;;
14984;SDS011;7588;62.368;25.902;2023-05-19T06:14:56;2.93;;;0.80;;
14984;SDS011;7588;62.368;25.902;2023-05-19T06:17:22;2.03;;;1.20;;
14984;SDS011;7588;62.368;25.902;2023-05-19T06:19:48;3.10;;;1.20;;
14984;SDS011;7588;62.368;25.902;2023-05-19T06:22:13;2.37;;;1.10;;
14984;SDS011;7588;62.368;25.902;2023-05-19T06:24:39;1.20;;;0.90;;
14984;SDS011;7588;62.368;25.902;2023-05-19T06:27:05;2.93;;;1.23;;
14984;SDS011;7588;62.368;25.902;2023-05-19T06:29:30;1.30;;;1.20;;
14984;SDS011;7588;62.368;25.902;2023-05-19T06:31:56;2.33;;;1.07;;
14984;SDS011;7588;62.368;25.902;2023-05-19T06:34:23;1.67;;;1.03;;
14984;SDS011;7588;62.368;25.902;2023-05-19T06:36:48;8.53;;;1.30;;
14984;SDS011;7588;62.368;25.902;2023-05-19T06:39:14;1.13;;;0.90;;
14984;SDS011;7588;62.368;25.902;2023-05-19T06:41:40;2.37;;;1.13;;
14984;SDS011;7588;62.368;25.902;2023-05-19T06:44:05;2.10;;;1.07;;
14984;SDS011;7588;62.368;25.902;2023-05-19T06:46:34;0.97;;;0.90;;
14984;SDS011;7588;62.368;25.902;2023-05-19T06:49:00;1.90;;;1.40;;
14984;SDS011;7588;62.368;25.902;2023-05-19T06:51:26;2.23;;;1.40;;
14984;SDS011;7588;62.368;25.902;2023-05-19T06:53:51;7.47;;;1.57;;
14984;SDS011;7588;62.368;25.902;2023-05-19T06:56:17;3.80;;;1.05;;
14984;SDS011;7588;62.368;25.902;2023-05-19T06:58:43;1.65;;;0.85;;
14984;SDS011;7588;62.368;25.902;2023-05-19T07:01:09;2.00;;;1.17;;
14984;SDS011;7588;62.368;25.902;2023-05-19T07:03:35;2.35;;;1.10;;
14984;SDS011;7588;62.368;25.902;2023-05-19T07:06:01;2.33;;;1.10;;
14984;SDS011;7588;62.368;25.902;2023-05-19T07:08:27;1.60;;;1.13;;
14984;SDS011;7588;62.368;25.902;2023-05-19T07:10:53;1.45;;;1.10;;
14984;SDS011;7588;62.368;25.902;2023-05-19T07:13:21;1.50;;;1.20;;
14984;SDS011;7588;62.368;25.902;2023-05-19T07:15:47;1.20;;;1.00;;
14984;SDS011;7588;62.368;25.902;2023-05-19T07:18:13;2.93;;;1.20;;
14984;SDS011;7588;62.368;25.902;2023-05-19T07:20:39;3.83;;;1.20;;
14984;SDS011;7588;62.368;25.902;2023-05-19T07:23:05;2.45;;;1.35;;
14984;SDS011;7588;62.368;25.902;2023-05-19T07:25:31;1.53;;;1.20;;
14984;SDS011;7588;62.368;25.902;2023-05-19T07:27:57;1.33;;;1.17;;
14984;SDS011;7588;62.368;25.902;2023-05-19T07:30:23;4.53;;;1.70;;
14984;SDS011;7588;62.368;25.902;2023-05-19T07:32:51;1.40;;;1.20;;
14984;SDS011;7588;62.368;25.902;2023-05-19T07:35:17;1.27;;;1.00;;
14984;SDS011;7588;62.368;25.902;2023-05-19T07:37:42;4.18;;;1.23;;
14984;SDS011;7588;62.368;25.902;2023-05-19T07:40:08;3.50;;;1.38;;
14984;SDS011;7588;62.368;25.902;2023-05-19T07:42:34;2.20;;;1.23;;
14984;SDS011;7588;62.368;25.902;2023-05-19T07:45:00;1.13;;;1.02;;
14984;SDS011;7588;62.368;25.902;2023-05-19T07:47:27;1.77;;;1.10;;
14984;SDS011;7588;62.368;25.902;2023-05-19T07:49:53;1.63;;;1.25;;
14984;SDS011;7588;62.368;25.902;2023-05-19T07:52:19;1.90;;;0.90;;
14984;SDS011;7588;62.368;25.902;2023-05-19T07:54:45;1.17;;;0.90;;
14984;SDS011;7588;62.368;25.902;2023-05-19T07:57:11;1.40;;;1.00;;
14984;SDS011;7588;62.368;25.902;2023-05-19T07:59:36;3.00;;;1.30;;
14984;SDS011;7588;62.368;25.902;2023-05-19T08:02:02;1.55;;;0.80;;
14984;SDS011;7588;62.368;25.902;2023-05-19T08:04:28;2.67;;;1.10;;
14984;SDS011;7588;62.368;25.902;2023-05-19T08:06:53;1.10;;;1.00;;
14984;SDS011;7588;62.368;25.902;2023-05-19T08:09:19;2.65;;;1.10;;
14984;SDS011;7588;62.368;25.902;2023-05-19T08:11:45;1.05;;;0.90;;
14984;SDS011;7588;62.368;25.902;2023-05-19T08:14:13;3.72;;;1.10;;
14984;SDS011;7588;62.368;25.902;2023-05-19T08:16:39;1.23;;;1.08;;
14984;SDS011;7588;62.368;25.902;2023-05-19T08:19:06;1.45;;;1.10;;
14984;SDS011;7588;62.368;25.902;2023-05-19T08:21:32;2.72;;;1.23;;
14984;SDS011;7588;62.368;25.902;2023-05-19T08:23:59;1.23;;;1.13;;
14984;SDS011;7588;62.368;25.902;2023-05-19T08:26:26;1.35;;;1.23;;
14984;SDS011;7588;62.368;25.902;2023-05-19T08:28:52;1.80;;;1.40;;
14984;SDS011;7588;62.368;25.902;2023-05-19T08:31:18;2.17;;;1.27;;
14984;SDS011;7588;62.368;25.902;2023-05-19T08:33:44;2.70;;;1.27;;
14984;SDS011;7588;62.368;25.902;2023-05-19T08:36:10;2.03;;;1.20;;
14984;SDS011;7588;62.368;25.902;2023-05-19T08:38:36;1.65;;;1.10;;
14984;SDS011;7588;62.368;25.902;2023-05-19T08:41:01;1.88;;;1.00;;
14984;SDS011;7588;62.368;25.902;2023-05-19T08:43:27;3.05;;;1.25;;
14984;SDS011;7588;62.368;25.902;2023-05-19T08:45:53;3.30;;;1.35;;
14984;SDS011;7588;62.368;25.902;2023-05-19T08:48:19;3.17;;;1.10;;
14984;SDS011;7588;62.368;25.902;2023-05-19T08:53:28;2.55;;;1.40;;
14984;SDS011;7588;62.368;25.902;2023-05-19T08:56:03;2.10;;;1.33;;
14984;SDS011;7588;62.368;25.902;2023-05-19T08:58:38;2.20;;;1.35;;
14984;SDS011;7588;62.368;25.902;2023-05-19T09:01:06;1.73;;;1.15;;
14984;SDS011;7588;62.368;25.902;2023-05-19T09:03:34;2.95;;;1.20;;
14984;SDS011;7588;62.368;25.902;2023-05-19T09:06:08;1.73;;;1.08;;
14984;SDS011;7588;62.368;25.902;2023-05-19T09:08:41;2.40;;;1.00;;
14984;SDS011;7588;62.368;25.902;2023-05-19T09:11:08;1.42;;;0.90;;
14984;SDS011;7588;62.368;25.902;2023-05-19T09:13:34;1.48;;;1.15;;
14984;SDS011;7588;62.368;25.902;2023-05-19T09:16:00;2.05;;;1.33;;
14984;SDS011;7588;62.368;25.902;2023-05-19T09:18:27;2.30;;;1.20;;
14984;SDS011;7588;62.368;25.902;2023-05-19T09:20:57;1.10;;;1.00;;
14984;SDS011;7588;62.368;25.902;2023-05-19T09:23:29;1.38;;;1.23;;
14984;SDS011;7588;62.368;25.902;2023-05-19T09:25:56;2.63;;;1.33;;
14984;SDS011;7588;62.368;25.902;2023-05-19T09:28:25;1.80;;;1.40;;
14984;SDS011;7588;62.368;25.902;2023-05-19T09:36:02;2.22;;;1.42;;
14984;SDS011;7588;62.368;25.902;2023-05-19T09:38:30;2.35;;;1.20;;
14984;SDS011;7588;62.368;25.902;2023-05-19T09:40:56;1.63;;;1.20;;
14984;SDS011;7588;62.368;25.902;2023-05-19T09:43:23;1.33;;;1.13;;
14984;SDS011;7588;62.368;25.902;2023-05-19T09:46:05;3.38;;;1.20;;
14984;SDS011;7588;62.368;25.902;2023-05-19T09:48:34;1.60;;;1.10;;
14984;SDS011;7588;62.368;25.902;2023-05-19T09:51:01;3.10;;;1.02;;
14984;SDS011;7588;62.368;25.902;2023-05-19T09:53:29;2.50;;;1.23;;
14984;SDS011;7588;62.368;25.902;2023-05-19T09:55:56;2.05;;;1.48;;
14984;SDS011;7588;62.368;25.902;2023-05-19T09:58:22;1.20;;;1.10;;
14984;SDS011;7588;62.368;25.902;2023-05-19T10:00:48;1.67;;;1.30;;
14984;SDS011;7588;62.368;25.902;2023-05-19T10:03:15;1.95;;;1.10;;
14984;SDS011;7588;62.368;25.902;2023-05-19T10:05:43;7.10;;;1.48;;
14984;SDS011;7588;62.368;25.902;2023-05-19T10:08:10;1.95;;;1.30;;
14984;SDS011;7588;62.368;25.902;2023-05-19T10:10:36;2.33;;;1.20;;
14984;SDS011;7588;62.368;25.902;2023-05-19T10:13:03;4.10;;;1.40;;
14984;SDS011;7588;62.368;25.902;2023-05-19T10:15:30;2.22;;;1.27;;
14984;SDS011;7588;62.368;25.902;2023-05-19T10:17:56;1.40;;;1.10;;
14984;SDS011;7588;62.368;25.902;2023-05-19T10:20:23;2.35;;;1.40;;
14984;SDS011;7588;62.368;25.902;2023-05-19T10:22:50;5.03;;;1.50;;
14984;SDS011;7588;62.368;25.902;2023-05-19T10:25:16;1.30;;;1.20;;
14984;SDS011;7588;62.368;25.902;2023-05-19T10:27:48;1.83;;;1.48;;
14984;SDS011;7588;62.368;25.902;2023-05-19T10:30:33;3.65;;;1.30;;
14984;SDS011;7588;62.368;25.902;2023-05-19T10:33:02;2.20;;;1.30;;
14984;SDS011;7588;62.368;25.902;2023-05-19T10:39:04;2.53;;;1.33;;
14984;SDS011;7588;62.368;25.902;2023-05-19T10:41:46;1.88;;;1.25;;
14984;SDS011;7588;62.368;25.902;2023-05-19T10:47:05;2.50;;;1.30;;
14984;SDS011;7588;62.368;25.902;2023-05-19T10:49:35;2.63;;;1.40;;
14984;SDS011;7588;62.368;25.902;2023-05-19T10:52:00;1.30;;;1.05;;
14984;SDS011;7588;62.368;25.902;2023-05-19T10:54:41;6.43;;;1.50;;
14984;SDS011;7588;62.368;25.902;2023-05-19T10:57:14;2.10;;;1.05;;
14984;SDS011;7588;62.368;25.902;2023-05-19T10:59:41;1.65;;;1.20;;
14984;SDS011;7588;62.368;25.902;2023-05-19T11:02:08;1.92;;;1.17;;
14984;SDS011;7588;62.368;25.902;2023-05-19T11:04:45;1.92;;;1.00;;
14984;SDS011;7588;62.368;25.902;2023-05-19T11:07:18;1.17;;;0.90;;
14984;SDS011;7588;62.368;25.902;2023-05-19T11:09:50;1.25;;;1.02;;
14984;SDS011;7588;62.368;25.902;2023-05-19T11:12:19;1.70;;;1.25;;
14984;SDS011;7588;62.368;25.902;2023-05-19T11:14:51;4.13;;;1.58;;
14984;SDS011;7588;62.368;25.902;2023-05-19T11:17:18;8.93;;;1.73;;
14984;SDS011;7588;62.368;25.902;2023-05-19T11:19:53;1.65;;;1.00;;
14984;SDS011;7588;62.368;25.902;2023-05-19T11:22:24;2.85;;;1.45;;
14984;SDS011;7588;62.368;25.902;2023-05-19T11:24:52;1.27;;;1.13;;
14984;SDS011;7588;62.368;25.902;2023-05-19T11:30:00;2.30;;;1.20;;
14984;SDS011;7588;62.368;25.902;2023-05-19T11:32:34;1.30;;;1.20;;
14984;SDS011;7588;62.368;25.902;2023-05-19T11:35:03;1.35;;;1.25;;
14984;SDS011;7588;62.368;25.902;2023-05-19T11:37:32;1.60;;;1.02;;
14984;SDS011;7588;62.368;25.902;2023-05-19T11:40:04;1.42;;;1.15;;
14984;SDS011;7588;62.368;25.902;2023-05-19T11:42:31;2.03;;;1.60;;
14984;SDS011;7588;62.368;25.902;2023-05-19T11:45:01;2.72;;;1.40;;
14984;SDS011;7588;62.368;25.902;2023-05-19T11:47:27;1.70;;;1.20;;
14984;SDS011;7588;62.368;25.902;2023-05-19T11:49:55;1.45;;;1.27;;
14984;SDS011;7588;62.368;25.902;2023-05-19T11:52:21;1.90;;;1.30;;
14984;SDS011;7588;62.368;25.902;2023-05-19T11:54:50;1.52;;;1.23;;
14984;SDS011;7588;62.368;25.902;2023-05-19T11:57:16;2.35;;;1.15;;
14984;SDS011;7588;62.368;25.902;2023-05-19T11:59:42;3.05;;;1.30;;
14984;SDS011;7588;62.368;25.902;2023-05-19T12:04:52;2.47;;;1.20;;
14984;SDS011;7588;62.368;25.902;2023-05-19T12:07:19;1.95;;;1.25;;
14984;SDS011;7588;62.368;25.902;2023-05-19T12:09:49;2.00;;;1.20;;
14984;SDS011;7588;62.368;25.902;2023-05-19T12:12:16;1.45;;;1.25;;
14984;SDS011;7588;62.368;25.902;2023-05-19T12:14:43;4.13;;;1.30;;
14984;SDS011;7588;62.368;25.902;2023-05-19T12:17:14;2.05;;;1.20;;
14984;SDS011;7588;62.368;25.902;2023-05-19T12:19:42;2.50;;;1.50;;
14984;SDS011;7588;62.368;25.902;2023-05-19T12:22:09;2.40;;;1.30;;
14984;SDS011;7588;62.368;25.902;2023-05-19T12:24:35;1.77;;;1.20;;
14984;SDS011;7588;62.368;25.902;2023-05-19T12:29:50;2.42;;;1.20;;
14984;SDS011;7588;62.368;25.902;2023-05-19T12:32:21;7.32;;;1.75;;
14984;SDS011;7588;62.368;25.902;2023-05-19T12:34:48;1.52;;;1.33;;
14984;SDS011;7588;62.368;25.902;2023-05-19T12:37:15;7.18;;;1.52;;
14984;SDS011;7588;62.368;25.902;2023-05-19T12:39:41;1.02;;;0.98;;
14984;SDS011;7588;62.368;25.902;2023-05-19T12:42:07;6.07;;;2.15;;
14984;SDS011;7588;62.368;25.902;2023-05-19T12:44:37;1.75;;;1.40;;
14984;SDS011;7588;62.368;25.902;2023-05-19T12:47:07;2.55;;;1.27;;
14984;SDS011;7588;62.368;25.902;2023-05-19T12:49:33;1.90;;;1.48;;
14984;SDS011;7588;62.368;25.902;2023-05-19T12:52:02;2.83;;;1.38;;
14984;SDS011;7588;62.368;25.902;2023-05-19T12:54:32;2.42;;;1.38;;
14984;SDS011;7588;62.368;25.902;2023-05-19T12:56:58;2.10;;;1.38;;
14984;SDS011;7588;62.368;25.902;2023-05-19T12:59:24;1.73;;;1.30;;
14984;SDS011;7588;62.368;25.902;2023-05-19T13:01:56;2.03;;;1.23;;
14984;SDS011;7588;62.368;25.902;2023-05-19T13:04:23;1.70;;;1.30;;
14984;SDS011;7588;62.368;25.902;2023-05-19T13:06:50;2.10;;;1.20;;
14984;SDS011;7588;62.368;25.902;2023-05-19T13:09:16;1.48;;;1.10;;
14984;SDS011;7588;62.368;25.902;2023-05-19T13:11:43;1.85;;;1.13;;
14984;SDS011;7588;62.368;25.902;2023-05-19T13:14:14;1.98;;;1.33;;
14984;SDS011;7588;62.368;25.902;2023-05-19T13:16:42;2.95;;;1.40;;
14984;SDS011;7588;62.368;25.902;2023-05-19T13:19:10;1.50;;;1.40;;
14984;SDS011;7588;62.368;25.902;2023-05-19T13:21:39;3.70;;;1.60;;
14984;SDS011;7588;62.368;25.902;2023-05-19T13:24:05;2.50;;;1.38;;
14984;SDS011;7588;62.368;25.902;2023-05-19T13:26:30;2.40;;;1.23;;
14984;SDS011;7588;62.368;25.902;2023-05-19T13:28:56;2.15;;;1.40;;
14984;SDS011;7588;62.368;25.902;2023-05-19T13:31:22;2.25;;;1.58;;
14984;SDS011;7588;62.368;25.902;2023-05-19T13:33:47;1.63;;;1.33;;
14984;SDS011;7588;62.368;25.902;2023-05-19T13:36:13;2.95;;;1.77;;
14984;SDS011;7588;62.368;25.902;2023-05-19T13:38:38;1.85;;;1.50;;
14984;SDS011;7588;62.368;25.902;2023-05-19T13:41:05;1.83;;;1.27;;
14984;SDS011;7588;62.368;25.902;2023-05-19T13:43:31;1.58;;;1.48;;
14984;SDS011;7588;62.368;25.902;2023-05-19T13:45:57;3.13;;;1.60;;
14984;SDS011;7588;62.368;25.902;2023-05-19T13:48:23;1.40;;;1.30;;
14984;SDS011;7588;62.368;25.902;2023-05-19T13:50:48;1.73;;;1.63;;
14984;SDS011;7588;62.368;25.902;2023-05-19T13:53:16;2.85;;;1.50;;
14984;SDS011;7588;62.368;25.902;2023-05-19T13:55:42;5.75;;;1.85;;
14984;SDS011;7588;62.368;25.902;2023-05-19T13:58:07;1.67;;;1.58;;
14984;SDS011;7588;62.368;25.902;2023-05-19T14:00:34;1.75;;;1.60;;
14984;SDS011;7588;62.368;25.902;2023-05-19T14:03:00;2.35;;;1.67;;
14984;SDS011;7588;62.368;25.902;2023-05-19T14:05:26;2.92;;;1.50;;
14984;SDS011;7588;62.368;25.902;2023-05-19T14:07:53;17.52;;;2.75;;
14984;SDS011;7588;62.368;25.902;2023-05-19T14:10:19;3.10;;;1.30;;
14984;SDS011;7588;62.368;25.902;2023-05-19T14:12:45;1.38;;;1.27;;
14984;SDS011;7588;62.368;25.902;2023-05-19T14:15:10;2.55;;;1.50;;
14984;SDS011;7588;62.368;25.902;2023-05-19T14:17:36;2.15;;;1.20;;
14984;SDS011;7588;62.368;25.902;2023-05-19T14:20:02;2.30;;;1.45;;
14984;SDS011;7588;62.368;25.902;2023-05-19T14:22:28;2.30;;;1.60;;
14984;SDS011;7588;62.368;25.902;2023-05-19T14:24:54;1.70;;;1.48;;
14984;SDS011;7588;62.368;25.902;2023-05-19T14:27:19;5.35;;;1.63;;
14984;SDS011;7588;62.368;25.902;2023-05-19T14:29:45;2.00;;;1.60;;
14984;SDS011;7588;62.368;25.902;2023-05-19T14:32:12;2.17;;;1.52;;
14984;SDS011;7588;62.368;25.902;2023-05-19T14:34:38;1.67;;;1.58;;
14984;SDS011;7588;62.368;25.902;2023-05-19T14:37:04;3.85;;;1.88;;
14984;SDS011;7588;62.368;25.902;2023-05-19T14:39:29;2.03;;;1.50;;
14984;SDS011;7588;62.368;25.902;2023-05-19T14:41:56;1.70;;;1.30;;
14984;SDS011;7588;62.368;25.902;2023-05-19T14:44:23;3.03;;;1.77;;
14984;SDS011;7588;62.368;25.902;2023-05-19T14:46:53;2.85;;;1.67;;
14984;SDS011;7588;62.368;25.902;2023-05-19T14:49:19;3.28;;;1.60;;
14984;SDS011;7588;62.368;25.902;2023-05-19T14:51:45;3.80;;;1.70;;
14984;SDS011;7588;62.368;25.902;2023-05-19T14:54:10;2.35;;;1.70;;
14984;SDS011;7588;62.368;25.902;2023-05-19T14:56:36;2.17;;;1.70;;
14984;SDS011;7588;62.368;25.902;2023-05-19T14:59:02;2.10;;;1.90;;
14984;SDS011;7588;62.368;25.902;2023-05-19T15:01:28;2.72;;;1.67;;
14984;SDS011;7588;62.368;25.902;2023-05-19T15:03:54;3.50;;;1.63;;
14984;SDS011;7588;62.368;25.902;2023-05-19T15:06:19;2.88;;;1.38;;
14984;SDS011;7588;62.368;25.902;2023-05-19T15:08:46;2.33;;;1.52;;
14984;SDS011;7588;62.368;25.902;2023-05-19T15:11:11;2.42;;;1.67;;
14984;SDS011;7588;62.368;25.902;2023-05-19T15:13:37;2.58;;;1.73;;
14984;SDS011;7588;62.368;25.902;2023-05-19T15:16:03;1.52;;;1.40;;
14984;SDS011;7588;62.368;25.902;2023-05-19T15:18:29;2.15;;;1.30;;
14984;SDS011;7588;62.368;25.902;2023-05-19T15:20:54;1.80;;;1.42;;
14984;SDS011;7588;62.368;25.902;2023-05-19T15:23:20;2.20;;;1.95;;
14984;SDS011;7588;62.368;25.902;2023-05-19T15:25:46;1.80;;;1.40;;